LSZR Airport Information

Runway Information
Runway 10 Length 0 ft width 0 ft
Elevation 1306 ft Threshold 0 ft Heading 0
Runway 28 Length 0 ft Width 0 ft
Elevation 1306 ft Threshold 0 ft Heading 0
Runway 10L Length 1969 ft width 75 ft
Elevation 0 ft Threshold 0 ft Heading 97
Runway 28R Length 1969 ft Width 75 ft
Elevation 0 ft Threshold 0 ft Heading 277
Runway 10R Length 4922 ft width 98 ft
Elevation 1306 ft Threshold 328 ft Heading 99
Runway 28L Length 4922 ft Width 98 ft
Elevation 1306 ft Threshold 246 ft Heading 279
Airport Frequencies
Type ACC Name ZURICH RAD Frequency 133.9 MHZ
Type ARR Name ZURICH ARR Frequency 119.925 MHZ
Type ATIS Name ATIS Frequency 123.775 MHZ
Type FIS Name Zurich Inf Frequency 124.7 MHZ
Type GND Name GND Frequency 121.8 MHZ
Type TWR Name TWR Frequency 118.65 MHZ
Airport Navaids
Airport Weather Information & NOTAM
ADDS - METARS form results

(0150 UTC 19 January 2018)
 
METAR text: LSZR 190120Z AUTO 26006KT 220V310 8000 RA SCT013 BKN018 BKN024 06/05 Q1007
Conditions at: LSZR (RHEINECK/ALTENRH, CH) observed 0120 UTC 19 January 2018
Temperature: 6.0°C (43°F)
Dewpoint: 5.0°C (41°F) [RH = 93%]
Pressure (altimeter): 29.73 inches Hg (1007.0 mb)
Winds: from the W (260 degrees) at 7 MPH (6 knots; 3.1 m/s)
Visibility: 5 miles (8 km)
Ceiling: 1800 feet AGL
Clouds: scattered clouds at 1300 feet AGL
broken clouds at 1800 feet AGL
broken clouds at 2400 feet AGL
Weather: RA  (rain)